Time;durP1;ratioP1;P1;durP2;ratioP2;P2;SDS_P1;SDS_P2;PMS_P1;PMS_P2;Temp;Humidity;BMP_temperature;BMP_pressure;BME280_temperature;BME280_humidity;BME280_pressure;Samples;Min_cycle;Max_cycle;Signal;HPM_P1;HPM_P2
2020/12/14 00:00:04;;;;;;;59.65;28.88;;;2.80;81.50;;;;;;5117592;28;20161;-38
2020/12/14 00:02:29;;;;;;;67.00;30.63;;;2.80;81.70;;;;;;5117616;28;20027;-37
2020/12/14 00:04:55;;;;;;;58.80;28.25;;;2.80;81.80;;;;;;5116983;28;20034;-39
2020/12/14 00:07:22;;;;;;;52.17;26.15;;;2.80;81.80;;;;;;5117626;28;20020;-37
2020/12/14 00:09:48;;;;;;;65.00;33.97;;;2.80;81.80;;;;;;5117155;28;20353;-37
2020/12/14 00:12:14;;;;;;;69.55;30.30;;;2.80;81.90;;;;;;5116880;28;20027;-37
2020/12/14 00:14:40;;;;;;;68.07;31.90;;;2.80;82.00;;;;;;5116071;28;20027;-38
2020/12/14 00:17:05;;;;;;;74.15;32.72;;;2.80;82.00;;;;;;5115233;28;20443;-37
2020/12/14 00:19:31;;;;;;;71.35;30.95;;;2.70;82.00;;;;;;5116511;28;20028;-39
2020/12/14 00:21:57;;;;;;;58.88;27.10;;;2.80;82.00;;;;;;5115486;28;20027;-37
2020/12/14 00:24:23;;;;;;;56.00;26.27;;;2.80;81.90;;;;;;5116748;28;20341;-40
2020/12/14 00:26:52;;;;;;;60.65;30.40;;;2.80;81.90;;;;;;5116915;28;20098;-37
2020/12/14 00:29:18;;;;;;;63.00;31.13;;;2.80;81.80;;;;;;5116953;28;20386;-37
2020/12/14 00:31:49;;;;;;;62.03;30.52;;;2.80;81.80;;;;;;5116471;28;20433;-38
2020/12/14 00:34:14;;;;;;;63.00;30.25;;;2.80;81.80;;;;;;5116730;28;20043;-38
2020/12/14 00:36:40;;;;;;;57.35;27.80;;;2.80;81.80;;;;;;5115502;28;20035;-37
2020/12/14 00:39:05;;;;;;;59.50;27.50;;;2.80;81.70;;;;;;5114958;28;20020;-39
2020/12/14 00:41:31;;;;;;;70.00;33.55;;;2.80;81.80;;;;;;5114887;28;20456;-37
2020/12/14 00:43:57;;;;;;;70.43;31.35;;;2.80;81.90;;;;;;5117884;28;20024;-39
2020/12/14 00:46:23;;;;;;;70.95;31.85;;;2.80;81.80;;;;;;5119279;28;20015;-39
2020/12/14 00:48:48;;;;;;;66.65;31.75;;;2.80;81.80;;;;;;5119190;28;20023;-39
2020/12/14 00:51:14;;;;;;;63.88;30.77;;;2.80;81.80;;;;;;5120692;28;20111;-39
2020/12/14 00:53:40;;;;;;;62.90;29.17;;;2.70;81.80;;;;;;5121060;28;20478;-37
2020/12/14 00:56:08;;;;;;;57.08;29.30;;;2.80;81.80;;;;;;5120502;28;20039;-40
2020/12/14 00:58:34;;;;;;;66.28;30.63;;;2.80;81.90;;;;;;5121121;28;20371;-38
2020/12/14 01:01:01;;;;;;;70.68;30.83;;;2.80;81.80;;;;;;5120205;28;20028;-38
2020/12/14 01:03:27;;;;;;;62.50;29.08;;;2.70;81.70;;;;;;5119954;28;20023;-38
2020/12/14 01:05:53;;;;;;;62.90;28.60;;;2.70;81.60;;;;;;5120244;28;20096;-38
2020/12/14 01:08:21;;;;;;;65.68;31.02;;;2.70;81.60;;;;;;5120034;28;20072;-37
2020/12/14 01:10:50;;;;;;;63.53;29.83;;;2.70;81.60;;;;;;5120276;28;20034;-38
2020/12/14 01:13:16;;;;;;;56.22;28.55;;;2.70;81.80;;;;;;5119587;28;20071;-37
2020/12/14 01:15:42;;;;;;;57.97;27.40;;;2.70;81.90;;;;;;5120276;28;20036;-38
2020/12/14 01:18:09;;;;;;;54.13;24.70;;;2.70;82.10;;;;;;5120504;28;20023;-38
2020/12/14 01:20:46;;;;;;;69.50;31.60;;;2.70;82.00;;;;;;5120059;28;20020;-38
2020/12/14 01:23:12;;;;;;;62.00;32.28;;;2.70;82.00;;;;;;5120703;28;20093;-37
2020/12/14 01:25:37;;;;;;;60.85;31.02;;;2.70;81.90;;;;;;5120225;28;20434;-39
2020/12/14 01:28:06;;;;;;;56.47;29.73;;;2.70;81.70;;;;;;5120448;28;20029;-39
2020/12/14 01:30:32;;;;;;;58.38;26.10;;;2.70;81.70;;;;;;5119890;28;20123;-38
2020/12/14 01:32:57;;;;;;;62.53;31.05;;;2.70;81.70;;;;;;5120175;28;20031;-38
2020/12/14 01:35:23;;;;;;;62.05;28.98;;;2.70;81.70;;;;;;5119719;28;20307;-40
2020/12/14 01:37:50;;;;;;;53.50;28.60;;;2.70;81.70;;;;;;5120568;28;20039;-37
2020/12/14 01:40:16;;;;;;;48.47;25.70;;;2.70;81.60;;;;;;5120051;28;20361;-38
2020/12/14 01:42:46;;;;;;;61.92;28.88;;;2.60;81.70;;;;;;5119952;27;20071;-38
2020/12/14 01:45:13;;;;;;;53.22;25.63;;;2.60;81.70;;;;;;5119867;28;20035;-38
2020/12/14 01:47:43;;;;;;;53.47;25.70;;;2.60;81.80;;;;;;5120214;28;20376;-37
2020/12/14 01:50:13;;;;;;;55.13;25.42;;;2.60;81.80;;;;;;5119265;28;20119;-38
2020/12/14 01:52:46;;;;;;;51.47;27.45;;;2.60;81.80;;;;;;5119764;28;20062;-37
2020/12/14 01:55:18;;;;;;;53.53;27.08;;;2.60;81.90;;;;;;5118786;28;20134;-38
2020/12/14 01:57:44;;;;;;;54.58;26.58;;;2.60;82.00;;;;;;5119894;28;20318;-37
2020/12/14 02:00:11;;;;;;;53.92;26.38;;;2.60;82.00;;;;;;5119616;28;20069;-38
2020/12/14 02:02:37;;;;;;;49.80;24.83;;;2.60;81.90;;;;;;5119726;28;20065;-37
2020/12/14 02:05:05;;;;;;;48.28;25.48;;;2.60;81.90;;;;;;5119534;28;20034;-38
2020/12/14 02:07:31;;;;;;;48.75;24.55;;;2.60;82.00;;;;;;5119754;28;20019;-37
2020/12/14 02:09:57;;;;;;;47.45;25.05;;;2.60;82.00;;;;;;5119143;28;20100;-38
2020/12/14 02:12:27;;;;;;;55.03;26.10;;;2.60;81.90;;;;;;5119585;28;20048;-37
2020/12/14 02:14:57;;;;;;;43.78;23.35;;;2.60;82.00;;;;;;5119332;28;20035;-38
2020/12/14 02:17:24;;;;;;;47.23;24.40;;;2.60;82.00;;;;;;5119474;28;20071;-39
2020/12/14 02:19:51;;;;;;;44.78;25.08;;;2.60;81.90;;;;;;5119229;28;20370;-38
2020/12/14 02:22:18;;;;;;;47.90;25.67;;;2.60;82.00;;;;;;5119085;28;20323;-37
2020/12/14 02:24:51;;;;;;;46.45;23.73;;;2.60;82.10;;;;;;5118781;27;20493;-38
2020/12/14 02:27:17;;;;;;;44.35;22.92;;;2.70;82.20;;;;;;5118649;28;20019;-37
2020/12/14 02:29:43;;;;;;;46.42;24.95;;;2.70;82.30;;;;;;5118604;28;20038;-39
2020/12/14 02:32:11;;;;;;;42.45;23.58;;;2.60;82.20;;;;;;5118739;28;20040;-38
2020/12/14 02:34:39;;;;;;;36.17;20.10;;;2.70;82.20;;;;;;5118666;27;20062;-37
2020/12/14 02:37:09;;;;;;;42.33;21.90;;;2.70;82.10;;;;;;5118673;28;20495;-38
2020/12/14 02:39:37;;;;;;;34.45;19.10;;;2.70;82.10;;;;;;5118280;28;20034;-37
2020/12/14 02:42:08;;;;;;;34.67;19.48;;;2.70;82.10;;;;;;5118599;27;20038;-38
2020/12/14 02:44:34;;;;;;;33.92;19.30;;;2.70;82.00;;;;;;5118765;28;20028;-38
2020/12/14 02:47:00;;;;;;;34.03;19.25;;;2.70;81.80;;;;;;5118527;28;20024;-37
2020/12/14 02:49:25;;;;;;;39.72;22.10;;;2.70;81.70;;;;;;5118652;28;20107;-39
2020/12/14 02:51:51;;;;;;;41.05;22.30;;;2.70;81.70;;;;;;5118322;28;20383;-37
2020/12/14 02:54:17;;;;;;;40.80;22.45;;;2.60;81.80;;;;;;5118260;28;20364;-39
2020/12/14 02:56:43;;;;;;;44.78;23.25;;;2.70;81.80;;;;;;5118177;28;20047;-39
2020/12/14 02:59:13;;;;;;;34.92;19.65;;;2.60;81.70;;;;;;5118150;28;20027;-38
2020/12/14 03:01:39;;;;;;;38.75;20.05;;;2.70;81.80;;;;;;5118709;28;20015;-37
2020/12/14 03:04:06;;;;;;;37.60;21.60;;;2.70;81.70;;;;;;5118041;28;20085;-38
2020/12/14 03:06:31;;;;;;;39.45;22.15;;;2.60;81.70;;;;;;5117044;28;20114;-37
2020/12/14 03:08:57;;;;;;;35.78;19.27;;;2.70;82.00;;;;;;5117987;28;20110;-39
2020/12/14 03:11:23;;;;;;;33.35;20.13;;;2.60;82.10;;;;;;5118167;28;20030;-38
2020/12/14 03:13:49;;;;;;;30.83;17.20;;;2.70;82.20;;;;;;5117859;28;20031;-38
2020/12/14 03:16:15;;;;;;;31.17;17.63;;;2.70;82.20;;;;;;5118046;27;20032;-39
2020/12/14 03:18:41;;;;;;;29.30;17.63;;;2.70;82.00;;;;;;5118488;28;20375;-37
2020/12/14 03:21:07;;;;;;;35.58;17.90;;;2.70;82.00;;;;;;5117793;28;20038;-39
2020/12/14 03:23:33;;;;;;;30.48;16.88;;;2.70;81.80;;;;;;5117587;28;20359;-37
2020/12/14 03:25:59;;;;;;;28.90;16.08;;;2.70;81.80;;;;;;5117657;28;20031;-38
2020/12/14 03:28:25;;;;;;;30.55;17.45;;;2.70;81.90;;;;;;5118336;28;20397;-38
2020/12/14 03:30:51;;;;;;;26.38;16.95;;;2.70;81.90;;;;;;5117409;28;20227;-38
2020/12/14 03:33:18;;;;;;;26.63;16.08;;;2.70;82.00;;;;;;5118136;28;20028;-38
2020/12/14 03:35:45;;;;;;;31.60;17.95;;;2.70;82.10;;;;;;5117656;28;20043;-39
2020/12/14 03:38:11;;;;;;;32.88;18.50;;;2.70;82.00;;;;;;5117612;28;20028;-38
2020/12/14 03:40:37;;;;;;;32.30;18.88;;;2.70;82.00;;;;;;5117387;28;20352;-39
2020/12/14 03:43:03;;;;;;;34.28;18.95;;;2.70;81.80;;;;;;5117693;28;20449;-40
2020/12/14 03:45:29;;;;;;;29.67;15.95;;;2.70;81.90;;;;;;5117245;28;20034;-39
2020/12/14 03:47:55;;;;;;;34.17;20.02;;;2.70;81.90;;;;;;5117808;28;20023;-38
2020/12/14 03:50:20;;;;;;;29.70;17.67;;;2.70;82.00;;;;;;5117245;28;20442;-40
2020/12/14 03:52:46;;;;;;;30.65;17.05;;;2.70;82.00;;;;;;5117962;28;20027;-38
2020/12/14 03:55:13;;;;;;;30.50;17.95;;;2.70;81.90;;;;;;5117345;28;20080;-39
2020/12/14 03:57:39;;;;;;;28.48;18.08;;;2.70;81.80;;;;;;5117384;28;20027;-38
2020/12/14 04:00:05;;;;;;;27.25;14.95;;;2.70;81.70;;;;;;5117080;28;20034;-39
2020/12/14 04:02:31;;;;;;;31.05;17.65;;;2.70;81.80;;;;;;5117287;28;20055;-38
2020/12/14 04:04:56;;;;;;;31.63;16.83;;;2.70;81.80;;;;;;5117271;28;20061;-39
2020/12/14 04:07:22;;;;;;;30.65;17.83;;;2.70;81.80;;;;;;5116640;27;20546;-38
2020/12/14 04:09:48;;;;;;;29.20;18.33;;;2.70;81.80;;;;;;5117432;28;20024;-40
2020/12/14 04:12:13;;;;;;;30.55;17.20;;;2.70;82.00;;;;;;5117518;28;20168;-38
2020/12/14 04:14:39;;;;;;;30.48;18.08;;;2.70;82.00;;;;;;5116885;28;20422;-40
2020/12/14 04:17:05;;;;;;;31.15;18.73;;;2.70;82.00;;;;;;5116595;28;20031;-38
2020/12/14 04:19:31;;;;;;;33.30;17.55;;;2.70;81.80;;;;;;5117037;28;20023;-40
2020/12/14 04:21:59;;;;;;;31.60;19.15;;;2.70;81.90;;;;;;5117044;28;20125;-38
2020/12/14 04:24:26;;;;;;;26.85;15.70;;;2.70;81.80;;;;;;5116760;28;20043;-38
2020/12/14 04:26:53;;;;;;;29.38;17.48;;;2.70;81.50;;;;;;5116624;28;20028;-38
2020/12/14 04:29:19;;;;;;;30.55;16.77;;;2.70;81.40;;;;;;5116635;28;20031;-38
2020/12/14 04:31:45;;;;;;;29.27;17.35;;;2.70;81.40;;;;;;5116756;28;20481;-38
2020/12/14 04:34:11;;;;;;;24.15;15.65;;;2.70;81.60;;;;;;5116665;28;20023;-39
2020/12/14 04:36:36;;;;;;;29.92;18.00;;;2.70;81.70;;;;;;5116505;28;20031;-38
2020/12/14 04:39:04;;;;;;;30.52;17.10;;;2.70;81.70;;;;;;5116906;28;20024;-39
2020/12/14 04:41:29;;;;;;;29.17;18.13;;;2.70;81.70;;;;;;5117071;28;20322;-38
2020/12/14 04:43:58;;;;;;;25.77;14.95;;;2.70;81.70;;;;;;5116756;28;20024;-38
2020/12/14 04:46:27;;;;;;;34.60;17.48;;;2.70;81.70;;;;;;5116641;28;20168;-39
2020/12/14 04:48:53;;;;;;;28.33;17.08;;;2.70;81.70;;;;;;5116926;28;20027;-38
2020/12/14 04:51:19;;;;;;;31.00;18.33;;;2.70;81.70;;;;;;5116543;28;20114;-39
2020/12/14 04:53:46;;;;;;;29.58;16.70;;;2.70;81.70;;;;;;5116648;28;20024;-38
2020/12/14 04:56:18;;;;;;;30.05;17.02;;;2.70;82.00;;;;;;5116658;28;20268;-38
2020/12/14 04:58:44;;;;;;;33.85;19.38;;;2.70;82.00;;;;;;5116906;28;20017;-39
2020/12/14 05:01:10;;;;;;;32.88;19.45;;;2.70;81.90;;;;;;5116132;28;20039;-39
2020/12/14 05:03:36;;;;;;;30.08;16.42;;;2.70;81.80;;;;;;5116670;28;20019;-38
2020/12/14 05:06:02;;;;;;;28.85;16.65;;;2.70;81.80;;;;;;5116301;28;20031;-39
2020/12/14 05:08:31;;;;;;;27.40;16.83;;;2.70;81.80;;;;;;5117058;28;20020;-38
2020/12/14 05:10:58;;;;;;;27.10;15.35;;;2.70;81.90;;;;;;5116151;28;20045;-38
2020/12/14 05:13:28;;;;;;;26.65;15.18;;;2.70;81.90;;;;;;5116968;28;20046;-39
2020/12/14 05:15:55;;;;;;;27.48;17.02;;;2.70;82.00;;;;;;5116331;28;20036;-38
2020/12/14 05:18:26;;;;;;;28.95;17.02;;;2.70;82.00;;;;;;5116672;28;20024;-38
2020/12/14 05:21:02;;;;;;;33.78;18.42;;;2.70;82.00;;;;;;5116706;28;20239;-38
2020/12/14 05:23:29;;;;;;;30.00;18.48;;;2.70;81.90;;;;;;5116569;28;20024;-38
2020/12/14 05:26:05;;;;;;;33.50;19.15;;;2.70;82.00;;;;;;5116099;28;20448;-39
2020/12/14 05:28:31;;;;;;;32.72;18.33;;;2.70;82.60;;;;;;5117063;28;20020;-38
2020/12/14 05:30:56;;;;;;;38.05;19.33;;;2.70;82.00;;;;;;5119792;28;20052;-38
2020/12/14 05:33:28;;;;;;;52.45;24.85;;;2.70;81.90;;;;;;5120249;28;20042;-37
2020/12/14 05:35:54;;;;;;;35.47;19.33;;;2.70;82.00;;;;;;5119640;28;20100;-38
2020/12/14 05:38:27;;;;;;;42.10;24.77;;;2.70;81.80;;;;;;5120394;28;20024;-38
2020/12/14 05:41:02;;;;;;;29.75;18.17;;;2.70;81.90;;;;;;5119780;28;20122;-38
2020/12/14 05:43:30;;;;;;;38.83;20.23;;;2.70;81.90;;;;;;5119744;28;20019;-39
2020/12/14 05:46:10;;;;;;;46.90;25.65;;;2.70;81.80;;;;;;5115825;28;20028;-43
2020/12/14 05:48:36;;;;;;;45.20;23.85;;;2.70;81.80;;;;;;5118939;27;20070;-38
2020/12/14 05:51:03;;;;;;;44.83;25.67;;;2.70;81.70;;;;;;5115153;28;20043;-39
2020/12/14 05:53:53;;;;;;;40.55;23.05;;;2.70;81.70;;;;;;5116690;28;20027;-38
2020/12/14 05:56:19;;;;;;;29.13;18.23;;;2.70;81.80;;;;;;5098709;28;20059;-39
2020/12/14 05:58:51;;;;;;;34.47;19.75;;;2.70;81.70;;;;;;5117051;28;20016;-39
2020/12/14 06:01:17;;;;;;;39.60;22.08;;;2.70;81.80;;;;;;5113794;28;20345;-38
2020/12/14 06:03:45;;;;;;;35.40;21.98;;;2.70;82.00;;;;;;5113659;28;20055;-39
2020/12/14 06:06:14;;;;;;;34.08;21.95;;;2.70;82.10;;;;;;5109194;28;20027;-38
2020/12/14 06:08:45;;;;;;;33.95;22.23;;;2.70;82.20;;;;;;5109907;28;20185;-38
2020/12/14 06:11:16;;;;;;;27.10;16.83;;;2.70;82.30;;;;;;5109600;28;20104;-40
2020/12/14 06:13:48;;;;;;;47.23;26.47;;;2.80;82.40;;;;;;5115676;28;20329;-39
2020/12/14 06:16:22;;;;;;;29.63;18.00;;;2.80;82.40;;;;;;5110888;28;20126;-39
2020/12/14 06:18:49;;;;;;;38.25;23.52;;;2.80;82.40;;;;;;5107261;28;20421;-38
2020/12/14 06:21:37;;;;;;;31.20;21.38;;;2.80;82.20;;;;;;5116805;28;20667;-39
2020/12/14 06:24:06;;;;;;;32.55;19.20;;;2.80;82.20;;;;;;5102979;28;20040;-38
2020/12/14 06:26:34;;;;;;;31.00;18.75;;;2.80;82.20;;;;;;5117380;28;20172;-37
2020/12/14 06:29:00;;;;;;;23.75;15.50;;;2.80;82.20;;;;;;5118593;28;20030;-39
2020/12/14 06:31:35;;;;;;;31.63;18.10;;;2.80;82.10;;;;;;5117871;28;20325;-38
2020/12/14 06:34:03;;;;;;;27.42;16.67;;;2.90;82.10;;;;;;5113847;28;20027;-39
2020/12/14 06:36:40;;;;;;;26.30;16.58;;;2.90;82.00;;;;;;5117034;28;20035;-38
2020/12/14 06:39:30;;;;;;;28.70;19.73;;;2.90;82.00;;;;;;5117410;28;20020;-39
2020/12/14 06:42:11;;;;;;;32.97;20.15;;;2.90;82.10;;;;;;5117036;27;20019;-39
2020/12/14 06:44:42;;;;;;;41.85;24.33;;;2.90;82.20;;;;;;5117603;28;20106;-39
2020/12/14 06:47:19;;;;;;;36.00;22.60;;;3.00;82.30;;;;;;5117122;28;20042;-39
2020/12/14 06:49:47;;;;;;;38.58;23.75;;;3.00;82.20;;;;;;5117291;28;20425;-39
2020/12/14 06:52:13;;;;;;;37.92;24.02;;;3.00;82.00;;;;;;5104464;28;20031;-39
2020/12/14 06:54:44;;;;;;;36.85;23.50;;;3.00;81.90;;;;;;5115689;28;20028;-39
2020/12/14 06:57:11;;;;;;;40.08;23.98;;;3.00;81.90;;;;;;5115677;27;20035;-39
2020/12/14 06:59:38;;;;;;;41.80;28.83;;;3.00;82.20;;;;;;5111450;28;20454;-39
2020/12/14 07:02:08;;;;;;;34.45;20.63;;;3.00;81.80;;;;;;5110214;27;20031;-39
2020/12/14 07:04:37;;;;;;;30.58;19.58;;;3.10;81.90;;;;;;5105078;28;20030;-39
2020/12/14 07:07:05;;;;;;;26.63;17.80;;;3.00;81.80;;;;;;5111347;28;20039;-40
2020/12/14 07:09:34;;;;;;;30.15;19.73;;;3.10;81.80;;;;;;5116404;28;20110;-41
2020/12/14 07:12:09;;;;;;;32.92;23.23;;;3.10;81.70;;;;;;5117333;28;20401;-39
2020/12/14 07:14:46;;;;;;;25.02;18.73;;;3.10;81.80;;;;;;5115769;28;20016;-39
2020/12/14 07:17:19;;;;;;;27.65;19.02;;;3.10;81.70;;;;;;5110777;28;20245;-39
2020/12/14 07:19:46;;;;;;;26.75;16.50;;;3.10;81.70;;;;;;5116927;27;20019;-39
2020/12/14 07:22:19;;;;;;;27.88;20.00;;;3.10;81.80;;;;;;5106783;28;20035;-39
2020/12/14 07:25:02;;;;;;;32.47;23.60;;;3.20;81.90;;;;;;5101399;28;20031;-40
2020/12/14 07:27:30;;;;;;;87.25;52.22;;;3.20;81.90;;;;;;5116649;28;20116;-39
2020/12/14 07:30:09;;;;;;;117.93;77.10;;;3.20;81.90;;;;;;5112647;28;20065;-39
2020/12/14 07:32:35;;;;;;;52.85;33.28;;;3.20;81.80;;;;;;5106329;28;20054;-39
2020/12/14 07:35:02;;;;;;;38.67;25.00;;;3.20;81.70;;;;;;5104923;28;20024;-40
2020/12/14 07:37:29;;;;;;;26.90;18.10;;;3.30;81.70;;;;;;5097609;28;20048;-39
2020/12/14 07:39:54;;;;;;;30.17;20.02;;;3.30;81.60;;;;;;5109957;28;20038;-40
2020/12/14 07:42:26;;;;;;;35.83;21.33;;;3.30;81.60;;;;;;5109634;28;20032;-39
2020/12/14 07:45:05;;;;;;;73.85;45.00;;;3.30;81.60;;;;;;5102121;28;20058;-39
2020/12/14 07:47:31;;;;;;;41.95;25.55;;;3.30;81.50;;;;;;5114210;28;20024;-39
2020/12/14 07:50:15;;;;;;;46.08;30.83;;;3.30;81.50;;;;;;5116572;28;20443;-40
2020/12/14 07:52:42;;;;;;;44.38;24.08;;;3.40;81.40;;;;;;5116796;28;20027;-39
2020/12/14 07:55:10;;;;;;;30.63;18.42;;;3.30;81.40;;;;;;5115822;28;20031;-39
2020/12/14 07:57:38;;;;;;;45.75;33.38;;;3.40;81.30;;;;;;5116360;28;20042;-39
2020/12/14 08:00:09;;;;;;;33.47;20.23;;;3.40;81.20;;;;;;5116815;28;20114;-39
2020/12/14 08:02:35;;;;;;;28.98;18.83;;;3.40;81.20;;;;;;5116005;28;20031;-39
2020/12/14 08:05:05;;;;;;;23.38;16.05;;;3.40;81.30;;;;;;5116541;28;20028;-39
2020/12/14 08:07:45;;;;;;;26.23;16.17;;;3.40;81.30;;;;;;5116600;28;20072;-39
2020/12/14 08:10:12;;;;;;;32.05;18.27;;;3.40;81.20;;;;;;5115944;28;20031;-39
2020/12/14 08:12:42;;;;;;;24.67;14.32;;;3.40;81.20;;;;;;5116483;28;20020;-39
2020/12/14 08:15:19;;;;;;;26.45;16.35;;;3.40;81.20;;;;;;5112985;28;20066;-39
2020/12/14 08:17:46;;;;;;;30.58;16.63;;;3.50;81.30;;;;;;5107044;28;20044;-39
2020/12/14 08:20:34;;;;;;;23.75;15.90;;;3.40;81.80;;;;;;5116130;28;20404;-39
2020/12/14 08:23:02;;;;;;;23.42;13.85;;;3.40;81.20;;;;;;5115432;28;20110;-39
2020/12/14 08:25:32;;;;;;;20.55;13.35;;;3.40;81.20;;;;;;5115661;28;20027;-39
2020/12/14 08:28:00;;;;;;;24.65;16.35;;;3.50;81.10;;;;;;5115878;28;20122;-39
2020/12/14 08:30:27;;;;;;;38.97;22.02;;;3.50;80.90;;;;;;5115581;28;20035;-39
2020/12/14 08:33:14;;;;;;;37.53;21.35;;;3.50;80.90;;;;;;5115828;28;20090;-39
2020/12/14 08:35:42;;;;;;;24.38;15.07;;;3.50;80.90;;;;;;5116563;28;20363;-39
2020/12/14 08:38:13;;;;;;;32.58;17.63;;;3.50;81.00;;;;;;5115538;28;20070;-39
2020/12/14 08:40:49;;;;;;;34.55;23.73;;;3.50;81.10;;;;;;5116395;28;20027;-39
2020/12/14 08:43:16;;;;;;;33.10;20.33;;;3.50;81.00;;;;;;5093904;28;20037;-39
2020/12/14 08:46:16;;;;;;;52.10;29.77;;;3.50;81.00;;;;;;5094789;28;20028;-39
2020/12/14 08:48:51;;;;;;;239.65;137.10;;;3.60;81.00;;;;;;5064245;28;20053;-39
2020/12/14 08:51:31;;;;;;;84.95;48.60;;;3.60;81.10;;;;;;5115159;28;20110;-39
2020/12/14 08:54:11;;;;;;;55.13;35.15;;;3.60;81.00;;;;;;5114875;28;20511;-39
2020/12/14 08:56:37;;;;;;;112.60;72.03;;;3.60;80.80;;;;;;5115509;28;20054;-39
2020/12/14 08:59:03;;;;;;;77.28;49.78;;;3.60;80.80;;;;;;5115412;28;20114;-39
2020/12/14 09:01:31;;;;;;;81.72;53.85;;;3.60;80.60;;;;;;5110398;28;20011;-39
2020/12/14 09:04:02;;;;;;;67.10;44.40;;;3.60;80.50;;;;;;5106359;28;20033;-39
2020/12/14 09:06:33;;;;;;;46.30;34.45;;;3.60;80.40;;;;;;5115639;28;20064;-39
2020/12/14 09:09:03;;;;;;;31.17;20.38;;;3.60;80.30;;;;;;5118094;28;20024;-39
2020/12/14 09:11:31;;;;;;;30.53;19.67;;;3.60;80.30;;;;;;5118150;28;20069;-39
2020/12/14 09:14:02;;;;;;;28.40;17.52;;;3.70;80.30;;;;;;5118906;28;20080;-40
2020/12/14 09:16:28;;;;;;;27.63;17.05;;;3.60;80.20;;;;;;5118881;28;20039;-39
2020/12/14 09:18:54;;;;;;;23.85;16.63;;;3.60;80.10;;;;;;5119584;27;20460;-40
2020/12/14 09:21:21;;;;;;;19.98;13.18;;;3.60;80.10;;;;;;5119181;28;20024;-41
2020/12/14 09:24:14;;;;;;;24.67;15.27;;;3.60;80.10;;;;;;5119004;28;20035;-39
2020/12/14 09:26:40;;;;;;;30.13;19.70;;;3.60;80.10;;;;;;5118157;28;20059;-39
2020/12/14 09:29:07;;;;;;;24.63;16.83;;;3.60;80.10;;;;;;5118836;28;20027;-39
2020/12/14 09:31:33;;;;;;;35.90;22.02;;;3.60;80.70;;;;;;5117733;28;20059;-39
2020/12/14 09:33:59;;;;;;;42.22;25.92;;;3.60;80.20;;;;;;5118688;28;20023;-41
2020/12/14 09:36:24;;;;;;;29.65;18.23;;;3.60;80.20;;;;;;5118290;28;20035;-39
2020/12/14 09:38:50;;;;;;;27.85;17.98;;;3.60;80.20;;;;;;5118458;28;20024;-39
2020/12/14 09:41:16;;;;;;;33.38;21.50;;;3.50;80.10;;;;;;5118985;28;20110;-40
2020/12/14 09:43:43;;;;;;;26.92;18.65;;;3.50;80.10;;;;;;5118930;28;20124;-39
2020/12/14 09:46:10;;;;;;;30.65;20.10;;;3.50;80.00;;;;;;5117100;28;20026;-40
2020/12/14 09:48:36;;;;;;;28.80;18.40;;;3.50;80.10;;;;;;5118793;28;20322;-39
2020/12/14 09:51:04;;;;;;;36.33;20.70;;;3.50;80.20;;;;;;5118300;28;20050;-38
2020/12/14 09:53:30;;;;;;;29.38;17.88;;;3.50;80.30;;;;;;5118018;28;20122;-38
2020/12/14 09:55:56;;;;;;;27.17;15.77;;;3.50;80.30;;;;;;5117318;28;20127;-39
2020/12/14 09:58:21;;;;;;;26.45;15.73;;;3.50;80.10;;;;;;5119504;28;20140;-38
2020/12/14 10:00:47;;;;;;;29.30;18.27;;;3.50;79.90;;;;;;5118450;28;20637;-40
2020/12/14 10:03:13;;;;;;;27.65;18.40;;;3.50;79.80;;;;;;5118462;28;20032;-38
2020/12/14 10:05:46;;;;;;;25.65;17.55;;;3.60;79.80;;;;;;5116502;28;20084;-42
2020/12/14 10:08:12;;;;;;;28.70;17.95;;;3.60;79.80;;;;;;5111780;28;20038;-39
2020/12/14 10:10:38;;;;;;;33.28;20.70;;;3.50;79.70;;;;;;5118706;28;20091;-40
2020/12/14 10:13:05;;;;;;;25.52;15.95;;;3.50;79.90;;;;;;5118635;28;20047;-40
2020/12/14 10:15:31;;;;;;;63.75;33.63;;;3.60;79.90;;;;;;5117569;28;20032;-39
2020/12/14 10:17:57;;;;;;;111.60;49.75;;;3.50;79.90;;;;;;5112914;28;20319;-38
2020/12/14 10:20:23;;;;;;;114.15;43.63;;;3.60;80.00;;;;;;5104513;28;20022;-39
2020/12/14 10:22:48;;;;;;;241.95;73.55;;;3.60;80.10;;;;;;5117349;28;20107;-38
2020/12/14 10:25:14;;;;;;;81.68;28.67;;;3.60;80.00;;;;;;5117487;28;20023;-42
2020/12/14 10:27:40;;;;;;;68.47;32.40;;;3.60;80.10;;;;;;5117782;28;20027;-45
2020/12/14 10:30:05;;;;;;;47.30;24.83;;;3.60;80.80;;;;;;5117891;28;20018;-44
2020/12/14 10:32:31;;;;;;;49.30;31.48;;;3.60;80.20;;;;;;5117557;28;20055;-45
2020/12/14 10:34:57;;;;;;;61.78;39.63;;;3.60;80.30;;;;;;5117550;28;20426;-44
2020/12/14 10:37:22;;;;;;;150.00;84.60;;;3.70;80.30;;;;;;5116675;28;20035;-42
2020/12/14 10:39:48;;;;;;;161.15;92.70;;;3.70;80.20;;;;;;5113039;28;20024;-44
2020/12/14 10:42:15;;;;;;;92.95;49.10;;;3.70;80.10;;;;;;5113153;28;20027;-42
2020/12/14 10:44:40;;;;;;;73.65;44.60;;;3.70;80.10;;;;;;5115595;28;20041;-48
2020/12/14 10:47:06;;;;;;;115.15;72.63;;;3.70;79.90;;;;;;5115530;28;20028;-44
2020/12/14 10:49:33;;;;;;;54.85;33.30;;;3.70;79.80;;;;;;5116675;28;20035;-44
2020/12/14 10:52:01;;;;;;;30.55;19.27;;;3.70;79.80;;;;;;5116867;28;20193;-42
2020/12/14 10:54:27;;;;;;;34.08;21.92;;;3.70;79.60;;;;;;5116311;28;20097;-42
2020/12/14 10:56:53;;;;;;;42.17;25.40;;;3.70;79.60;;;;;;5115949;28;20421;-42
2020/12/14 10:59:18;;;;;;;38.70;22.42;;;3.80;79.70;;;;;;5116574;28;20035;-43
2020/12/14 11:01:50;;;;;;;41.92;23.33;;;3.80;79.70;;;;;;5108069;28;20505;-45
2020/12/14 11:04:15;;;;;;;28.42;18.30;;;3.80;79.60;;;;;;5115951;28;20035;-44
2020/12/14 11:06:41;;;;;;;28.38;18.98;;;3.80;79.60;;;;;;5116080;28;20027;-43
2020/12/14 11:09:07;;;;;;;31.70;19.65;;;3.80;79.60;;;;;;5116061;28;20023;-43
2020/12/14 11:11:32;;;;;;;32.75;21.27;;;3.80;79.50;;;;;;5116682;28;20050;-45
2020/12/14 11:13:59;;;;;;;31.52;18.85;;;3.80;79.50;;;;;;5116620;28;20074;-45
2020/12/14 11:16:27;;;;;;;33.80;18.45;;;3.80;79.50;;;;;;5116792;28;20134;-46
2020/12/14 11:18:56;;;;;;;23.67;16.02;;;3.80;79.50;;;;;;5116132;28;20031;-45
2020/12/14 11:21:22;;;;;;;25.23;16.45;;;3.80;79.30;;;;;;5115500;28;20345;-41
2020/12/14 11:23:48;;;;;;;32.92;18.33;;;3.80;79.30;;;;;;5116154;28;20137;-41
2020/12/14 11:26:14;;;;;;;29.67;17.02;;;3.80;79.30;;;;;;5115578;27;20051;-42
2020/12/14 11:28:41;;;;;;;31.50;18.55;;;3.80;79.30;;;;;;5115510;28;20177;-42
2020/12/14 11:31:08;;;;;;;38.30;19.27;;;3.80;79.10;;;;;;5115664;28;20039;-39
2020/12/14 11:33:34;;;;;;;34.22;18.98;;;3.80;79.00;;;;;;5114124;28;20032;-39
2020/12/14 11:36:01;;;;;;;38.90;21.17;;;3.80;79.00;;;;;;5113948;28;20046;-39
2020/12/14 11:38:27;;;;;;;39.03;21.23;;;3.80;79.00;;;;;;5116074;28;20036;-39
2020/12/14 11:40:53;;;;;;;28.17;17.42;;;3.80;79.10;;;;;;5115455;28;20043;-40
2020/12/14 11:43:18;;;;;;;28.13;17.13;;;3.80;79.20;;;;;;5115893;28;20035;-39
2020/12/14 11:45:45;;;;;;;30.90;18.35;;;3.80;79.10;;;;;;5115182;28;20444;-41
2020/12/14 11:48:12;;;;;;;33.85;18.55;;;3.80;79.00;;;;;;5111470;28;20050;-40
2020/12/14 11:50:39;;;;;;;28.00;17.75;;;3.80;79.20;;;;;;5091963;28;20069;-40
2020/12/14 11:53:05;;;;;;;24.40;15.15;;;3.80;79.20;;;;;;5112145;28;20097;-40
2020/12/14 11:55:30;;;;;;;29.73;17.25;;;3.80;79.10;;;;;;5108218;28;20047;-39
2020/12/14 11:57:56;;;;;;;29.83;18.52;;;3.90;79.10;;;;;;5114636;28;20032;-39
2020/12/14 12:00:22;;;;;;;26.40;16.55;;;3.90;79.00;;;;;;5116097;28;20023;-40
2020/12/14 12:02:47;;;;;;;31.70;19.02;;;3.90;79.10;;;;;;5114919;28;20057;-40
2020/12/14 12:05:13;;;;;;;30.02;17.05;;;3.90;79.10;;;;;;5114637;28;20065;-40
2020/12/14 12:07:39;;;;;;;27.83;18.05;;;3.90;79.20;;;;;;5115461;28;20118;-40
2020/12/14 12:10:06;;;;;;;31.95;18.83;;;3.90;79.20;;;;;;5114891;28;20019;-42
2020/12/14 12:12:32;;;;;;;27.60;17.80;;;3.90;79.10;;;;;;5115030;28;20419;-40
2020/12/14 12:15:00;;;;;;;32.25;17.65;;;3.90;79.20;;;;;;5116381;28;20030;-43
2020/12/14 12:17:26;;;;;;;28.95;15.63;;;4.00;79.20;;;;;;5115778;28;20040;-39
2020/12/14 12:19:52;;;;;;;27.60;17.30;;;4.00;79.10;;;;;;5115231;28;20031;-40
2020/12/14 12:22:19;;;;;;;45.35;28.67;;;4.00;79.00;;;;;;5113400;28;20035;-38
2020/12/14 12:24:45;;;;;;;29.60;18.60;;;4.00;78.90;;;;;;5108648;28;20542;-38
2020/12/14 12:27:11;;;;;;;26.95;17.13;;;4.00;78.70;;;;;;5114387;28;20043;-37
2020/12/14 12:29:37;;;;;;;27.10;16.42;;;4.00;78.50;;;;;;5113857;28;20019;-43
2020/12/14 12:32:03;;;;;;;30.50;18.13;;;4.00;78.50;;;;;;5113174;28;20048;-38
2020/12/14 12:34:28;;;;;;;32.35;19.00;;;4.00;78.50;;;;;;5114352;28;20440;-40
2020/12/14 12:36:56;;;;;;;29.58;18.58;;;4.00;78.80;;;;;;5111152;28;20093;-39
2020/12/14 12:39:22;;;;;;;30.58;19.58;;;4.00;78.60;;;;;;5115679;28;20054;-41